Terminal Aerodrome Forecast
Issued by NWS

Home | Current Version | Previous Version | Text Only | Print | Product List | Glossary On
Versions: 1 2 3 4 5 6 7 8 9 10 11 12 13 14 15 16
000
FTUS44 KMAF 310500
TAFHOB
TAF
KHOB 310521Z 3106/0106 04008G18KT P6SM SCT200
     FM311200 07007KT P6SM OVC250
     FM010000 10005KT P6SM BKN200=

USA.gov is the U.S. government's official web portal to all federal, state and local government web resources and services.